createdAt,value
2022-12-04T00:01:16.867Z,0.36
2022-12-04T00:03:44.701Z,0.40
2022-12-04T00:06:14.598Z,0.37
2022-12-04T00:08:43.215Z,4.41
2022-12-04T00:11:14.222Z,5.93
2022-12-04T00:13:42.796Z,6.08
2022-12-04T00:16:13.454Z,6.30
2022-12-04T00:18:41.378Z,6.29
2022-12-04T00:21:11.356Z,6.10
2022-12-04T00:23:40.141Z,6.37
2022-12-04T00:26:10.201Z,6.67
2022-12-04T00:28:40.216Z,7.48
2022-12-04T00:31:10.055Z,7.51
2022-12-04T00:33:38.297Z,8.43
2022-12-04T00:36:08.372Z,7.27
2022-12-04T00:38:36.534Z,6.29
2022-12-04T00:41:04.954Z,7.62
2022-12-04T00:43:33.143Z,8.37
2022-12-04T00:46:02.337Z,8.67
2022-12-04T00:48:30.420Z,8.51
2022-12-04T00:51:03.167Z,7.85
2022-12-04T00:53:30.992Z,5.87
2022-12-04T00:55:58.892Z,4.50
2022-12-04T00:58:26.683Z,3.04
2022-12-04T01:01:05.131Z,2.91
2022-12-04T01:03:33.185Z,2.78
2022-12-04T01:06:01.370Z,2.64
2022-12-04T01:08:29.429Z,2.35
2022-12-04T01:10:57.381Z,2.28
2022-12-04T01:13:26.770Z,2.46
2022-12-04T01:15:54.602Z,2.09
2022-12-04T01:18:23.809Z,2.13
2022-12-04T01:20:53.005Z,2.19
2022-12-04T01:23:21.214Z,1.89
2022-12-04T01:25:53.529Z,2.16
2022-12-04T01:28:21.691Z,2.34
2022-12-04T01:31:01.842Z,2.24
2022-12-04T01:33:32.066Z,2.03
2022-12-04T01:36:01.649Z,2.08
2022-12-04T01:38:29.984Z,1.92
2022-12-04T01:40:58.411Z,1.94
2022-12-04T01:43:27.232Z,2.01
2022-12-04T01:45:56.707Z,1.68
2022-12-04T01:48:30.759Z,1.72
2022-12-04T01:51:05.869Z,1.84
2022-12-04T01:53:36.223Z,1.65
2022-12-04T01:56:05.413Z,1.93
2022-12-04T01:58:37.634Z,2.23
2022-12-04T02:01:09.204Z,2.14
2022-12-04T02:03:38.691Z,2.43
2022-12-04T02:06:08.279Z,2.09
2022-12-04T02:08:37.027Z,1.79
2022-12-04T02:11:15.042Z,1.90
2022-12-04T02:13:51.465Z,2.01
2022-12-04T02:16:25.876Z,2.20
2022-12-04T02:19:00.568Z,2.08
2022-12-04T02:21:37.066Z,2.11
2022-12-04T02:24:22.926Z,2.29
2022-12-04T02:26:55.295Z,2.18
2022-12-04T02:29:38.043Z,2.18
2022-12-04T02:32:13.966Z,2.51
2022-12-04T02:34:45.695Z,2.41
2022-12-04T02:37:19.616Z,2.47
2022-12-04T02:39:53.397Z,2.10
2022-12-04T02:42:27.761Z,2.19
2022-12-04T02:45:01.328Z,2.31
2022-12-04T02:47:29.306Z,2.25
2022-12-04T02:50:01.194Z,2.33
2022-12-04T02:52:34.282Z,2.21
2022-12-04T02:55:08.804Z,2.10
2022-12-04T02:57:41.432Z,2.06
2022-12-04T03:00:12.370Z,2.16
2022-12-04T03:02:44.560Z,2.40
2022-12-04T03:05:18.194Z,2.27
2022-12-04T03:07:50.253Z,1.97
2022-12-04T03:10:24.219Z,1.67
2022-12-04T03:12:55.928Z,1.77
2022-12-04T03:15:28.924Z,1.69
2022-12-04T03:18:01.154Z,1.99
2022-12-04T03:20:33.115Z,2.04
2022-12-04T03:23:05.129Z,1.55
2022-12-04T03:25:37.023Z,1.53
2022-12-04T03:28:08.514Z,1.68
2022-12-04T03:30:44.249Z,1.69
2022-12-04T03:33:16.465Z,1.79
2022-12-04T03:35:50.605Z,1.75
2022-12-04T03:38:32.209Z,2.00
2022-12-04T03:41:04.363Z,1.93
2022-12-04T03:43:38.327Z,2.11
2022-12-04T03:46:13.653Z,1.89
2022-12-04T03:48:45.046Z,1.65
2022-12-04T03:51:18.798Z,2.16
2022-12-04T03:53:52.137Z,2.10
2022-12-04T03:56:23.493Z,1.84
2022-12-04T03:58:56.768Z,1.89
2022-12-04T04:01:33.913Z,1.87
2022-12-04T04:04:07.548Z,2.15
2022-12-04T04:06:40.222Z,2.09
2022-12-04T04:09:14.434Z,1.76
2022-12-04T04:11:48.651Z,2.03
2022-12-04T04:14:40.354Z,1.83
2022-12-04T04:17:33.542Z,2.04
2022-12-04T04:20:25.691Z,2.18
2022-12-04T04:23:12.961Z,2.16
2022-12-04T04:25:43.580Z,1.86
2022-12-04T04:28:29.863Z,2.04
2022-12-04T04:31:05.484Z,1.66
2022-12-04T04:33:37.071Z,1.77
2022-12-04T04:36:13.331Z,1.82
2022-12-04T04:38:46.887Z,1.77
2022-12-04T04:41:20.558Z,1.58
2022-12-04T04:43:55.677Z,1.79
2022-12-04T04:46:29.450Z,1.90
2022-12-04T04:49:02.207Z,2.01
2022-12-04T04:51:32.207Z,1.73
2022-12-04T04:54:04.780Z,1.97
2022-12-04T04:56:32.735Z,2.03
2022-12-04T04:59:00.452Z,1.52
2022-12-04T05:01:29.623Z,1.80
2022-12-04T05:03:58.757Z,1.96
2022-12-04T05:06:26.497Z,1.98
2022-12-04T05:08:54.205Z,2.09
2022-12-04T05:11:22.010Z,2.04
2022-12-04T05:13:49.772Z,2.18
2022-12-04T05:16:18.208Z,2.09
2022-12-04T05:19:06.635Z,1.75
2022-12-04T05:21:35.245Z,1.47
2022-12-04T05:24:03.149Z,1.85
2022-12-04T05:26:30.891Z,2.07
2022-12-04T05:28:58.645Z,1.79
2022-12-04T05:31:26.472Z,1.67
2022-12-04T05:33:54.307Z,1.75
2022-12-04T05:36:22.020Z,1.90
2022-12-04T05:38:51.634Z,1.79
2022-12-04T05:41:19.362Z,1.79
2022-12-04T05:43:47.108Z,1.64
2022-12-04T05:46:14.908Z,1.66
2022-12-04T05:48:42.674Z,2.14
2022-12-04T05:51:12.082Z,2.10
2022-12-04T05:53:40.154Z,2.24
2022-12-04T05:56:09.824Z,2.12
2022-12-04T05:58:38.959Z,2.33
2022-12-04T06:01:14.128Z,2.36
2022-12-04T06:03:41.921Z,2.24
2022-12-04T06:06:17.639Z,2.21
2022-12-04T06:08:49.695Z,2.35
2022-12-04T06:11:21.335Z,2.08
2022-12-04T06:13:49.280Z,1.84
2022-12-04T06:16:18.958Z,1.85
2022-12-04T06:18:50.543Z,2.23
2022-12-04T06:21:18.932Z,2.17
2022-12-04T06:23:47.319Z,2.39
2022-12-04T06:26:15.295Z,2.35
2022-12-04T06:28:44.439Z,2.07
2022-12-04T06:31:14.062Z,1.75
2022-12-04T06:33:42.268Z,1.77
2022-12-04T06:36:13.138Z,1.80
2022-12-04T06:38:42.537Z,1.51
2022-12-04T06:41:11.915Z,1.59
2022-12-04T06:43:39.958Z,1.57
2022-12-04T06:46:12.499Z,1.75
2022-12-04T06:48:41.013Z,1.79
2022-12-04T06:51:13.341Z,2.07
2022-12-04T06:53:41.933Z,1.59
2022-12-04T06:56:14.246Z,1.71
2022-12-04T06:58:41.984Z,1.77
2022-12-04T07:01:12.921Z,1.75
2022-12-04T07:03:44.718Z,1.74
2022-12-04T07:06:17.633Z,2.09
2022-12-04T07:08:46.931Z,2.19
2022-12-04T07:11:16.220Z,2.25
2022-12-04T07:13:44.356Z,2.36
2022-12-04T07:16:15.786Z,1.99
2022-12-04T07:18:43.934Z,2.38
2022-12-04T07:21:15.965Z,1.99
2022-12-04T07:23:44.200Z,2.02
2022-12-04T07:26:14.303Z,1.95
2022-12-04T07:28:42.767Z,2.34
2022-12-04T07:31:14.510Z,1.82
2022-12-04T07:33:43.139Z,1.66
2022-12-04T07:36:14.149Z,1.92
2022-12-04T07:38:42.496Z,2.17
2022-12-04T07:41:12.137Z,2.31
2022-12-04T07:43:40.236Z,2.42
2022-12-04T07:46:10.058Z,2.21
2022-12-04T07:48:39.240Z,2.46
2022-12-04T07:51:09.149Z,2.18
2022-12-04T07:53:37.710Z,2.00
2022-12-04T07:56:06.923Z,1.97
2022-12-04T07:58:35.101Z,2.00
2022-12-04T08:01:07.742Z,1.98
2022-12-04T08:03:36.372Z,2.08
2022-12-04T08:06:08.021Z,1.83
2022-12-04T08:08:37.025Z,1.99
2022-12-04T08:11:07.525Z,1.93
2022-12-04T08:13:35.789Z,2.24
2022-12-04T08:16:03.877Z,2.45
2022-12-04T08:18:31.867Z,2.21
2022-12-04T08:21:06.648Z,2.51
2022-12-04T08:23:34.929Z,4.72
2022-12-04T08:26:03.666Z,4.50
2022-12-04T08:28:32.588Z,4.45
2022-12-04T08:31:04.719Z,3.29
2022-12-04T08:33:33.082Z,3.49
2022-12-04T08:36:01.601Z,3.99
2022-12-04T08:38:30.801Z,4.47
2022-12-04T08:41:01.121Z,4.68
2022-12-04T08:43:29.263Z,4.43
2022-12-04T08:45:58.445Z,3.76
2022-12-04T08:48:27.403Z,4.48
2022-12-04T08:50:55.877Z,4.18
2022-12-04T08:53:24.092Z,4.52
2022-12-04T08:55:53.995Z,4.91
2022-12-04T08:58:21.927Z,4.25
2022-12-04T09:00:50.435Z,4.14
2022-12-04T09:03:21.059Z,4.07
2022-12-04T09:05:51.348Z,3.43
2022-12-04T09:08:19.163Z,3.97
2022-12-04T09:10:47.070Z,4.15
2022-12-04T09:13:16.304Z,4.43
2022-12-04T09:15:44.258Z,4.66
2022-12-04T09:18:12.209Z,4.00
2022-12-04T09:20:40.510Z,3.19
2022-12-04T09:23:08.914Z,3.89
2022-12-04T09:25:37.811Z,4.43
2022-12-04T09:28:05.880Z,4.06
2022-12-04T09:30:35.020Z,2.53
2022-12-04T09:33:03.897Z,3.26
2022-12-04T09:35:31.684Z,3.77
2022-12-04T09:37:59.476Z,4.40
2022-12-04T09:40:35.511Z,3.24
2022-12-04T09:43:12.372Z,3.48
2022-12-04T09:45:47.711Z,3.41
2022-12-04T09:48:19.295Z,4.25
2022-12-04T09:50:49.139Z,4.50
2022-12-04T09:53:23.316Z,4.59
2022-12-04T09:55:56.174Z,5.01
2022-12-04T09:58:40.312Z,5.05
2022-12-04T10:01:21.680Z,4.64
2022-12-04T10:03:50.011Z,4.59
2022-12-04T10:06:22.460Z,4.54
2022-12-04T10:08:56.956Z,4.98
2022-12-04T10:11:32.868Z,5.10
2022-12-04T10:14:18.043Z,5.03
2022-12-04T10:17:01.636Z,5.49
2022-12-04T10:19:34.524Z,4.77
2022-12-04T10:22:13.694Z,4.40
2022-12-04T10:24:45.201Z,4.90
2022-12-04T10:27:20.586Z,4.58
2022-12-04T10:29:53.783Z,4.76
2022-12-04T10:32:26.582Z,4.59
2022-12-04T10:34:58.064Z,4.98
2022-12-04T10:37:27.250Z,4.73
2022-12-04T10:39:59.250Z,3.87
2022-12-04T10:42:33.880Z,4.23
2022-12-04T10:45:01.744Z,4.33
2022-12-04T10:47:31.736Z,4.91
2022-12-04T10:50:01.736Z,4.67
2022-12-04T10:52:29.492Z,4.32
2022-12-04T10:54:59.913Z,3.59
2022-12-04T10:57:38.046Z,3.61
2022-12-04T11:00:25.163Z,3.88
2022-12-04T11:02:56.697Z,3.94
2022-12-04T11:05:28.061Z,3.41
2022-12-04T11:07:57.692Z,3.03
2022-12-04T11:10:31.937Z,2.71
2022-12-04T11:13:03.109Z,2.25
2022-12-04T11:15:31.508Z,2.03
2022-12-04T11:18:10.490Z,2.17
2022-12-04T11:20:40.757Z,2.23
2022-12-04T11:23:17.054Z,2.30
2022-12-04T11:25:48.907Z,2.34
2022-12-04T11:28:33.804Z,2.27
2022-12-04T11:31:08.138Z,2.27
2022-12-04T11:33:44.214Z,2.38
2022-12-04T11:36:25.749Z,2.36
2022-12-04T11:39:03.602Z,2.36
2022-12-04T11:41:33.285Z,2.24
2022-12-04T11:44:01.243Z,2.27
2022-12-04T11:46:31.565Z,2.30
2022-12-04T11:49:02.992Z,2.19
2022-12-04T11:51:44.385Z,2.20
2022-12-04T11:54:27.632Z,2.18
2022-12-04T11:57:06.850Z,2.19
2022-12-04T11:59:48.610Z,2.25
2022-12-04T12:02:33.973Z,2.30
2022-12-04T12:05:50.811Z,2.35
2022-12-04T12:08:32.931Z,2.37
2022-12-04T12:11:10.227Z,2.38
2022-12-04T12:13:50.628Z,2.37
2022-12-04T12:16:28.645Z,2.35
2022-12-04T12:19:27.983Z,2.44
2022-12-04T12:22:05.601Z,2.44
2022-12-04T12:24:46.864Z,2.42
2022-12-04T12:27:33.192Z,2.47
2022-12-04T12:30:05.683Z,2.55
2022-12-04T12:32:45.751Z,2.56
2022-12-04T12:35:28.415Z,2.54
2022-12-04T12:38:04.378Z,2.50
2022-12-04T12:40:37.864Z,2.55
2022-12-04T12:43:09.109Z,2.58
2022-12-04T12:45:45.146Z,2.54
2022-12-04T12:48:26.470Z,2.40
2022-12-04T12:51:22.095Z,2.42
2022-12-04T12:53:53.554Z,2.46
2022-12-04T12:56:32.211Z,2.52
2022-12-04T12:59:05.320Z,2.56
2022-12-04T13:01:46.218Z,2.67
2022-12-04T13:04:20.630Z,2.49
2022-12-04T13:06:54.059Z,2.48
2022-12-04T13:09:26.729Z,2.49
2022-12-04T13:12:01.184Z,2.51
2022-12-04T13:14:28.957Z,2.54
2022-12-04T13:17:00.670Z,2.63
2022-12-04T13:19:33.315Z,2.70
2022-12-04T13:22:09.867Z,2.70
2022-12-04T13:24:59.318Z,2.68
2022-12-04T13:27:37.066Z,2.69
2022-12-04T13:30:14.437Z,2.59
2022-12-04T13:33:19.564Z,2.58
2022-12-04T13:36:04.714Z,2.63
2022-12-04T13:38:43.803Z,2.62
2022-12-04T13:41:19.126Z,2.66
2022-12-04T13:43:49.233Z,2.70
2022-12-04T13:46:29.673Z,2.70
2022-12-04T13:49:09.535Z,2.70
2022-12-04T13:51:39.792Z,2.83
2022-12-04T13:54:26.025Z,2.72
2022-12-04T13:56:57.778Z,2.73
2022-12-04T13:59:36.483Z,2.64
2022-12-04T14:02:21.896Z,2.62
2022-12-04T14:04:56.261Z,2.57
2022-12-04T14:07:28.555Z,2.61
2022-12-04T14:09:59.396Z,2.67
2022-12-04T14:12:33.814Z,2.56
2022-12-04T14:15:04.231Z,2.48
2022-12-04T14:17:34.828Z,2.65
2022-12-04T14:20:08.018Z,2.61
2022-12-04T14:22:44.347Z,2.65
2022-12-04T14:25:35.705Z,2.39
2022-12-04T14:28:29.821Z,2.54
2022-12-04T14:31:06.310Z,2.56
2022-12-04T14:33:39.171Z,2.54
2022-12-04T14:36:11.698Z,2.54
2022-12-04T14:38:40.321Z,2.50
2022-12-04T14:41:08.655Z,2.47
2022-12-04T14:43:41.222Z,2.43
2022-12-04T14:46:16.807Z,2.50
2022-12-04T14:48:53.890Z,2.52
2022-12-04T14:51:26.017Z,2.52
2022-12-04T14:54:04.051Z,2.44
2022-12-04T14:56:45.250Z,2.47
2022-12-04T14:59:18.808Z,2.23
2022-12-04T15:01:48.324Z,2.21
2022-12-04T15:04:23.944Z,2.16
2022-12-04T15:06:58.320Z,2.27
2022-12-04T15:09:46.540Z,2.24
2022-12-04T15:12:37.008Z,2.25
2022-12-04T15:15:17.338Z,2.28
2022-12-04T15:17:45.431Z,2.15
2022-12-04T15:20:18.133Z,1.99
2022-12-04T15:22:46.714Z,1.79
2022-12-04T15:25:21.765Z,1.80
2022-12-04T15:27:52.166Z,1.76
2022-12-04T15:30:24.386Z,1.72
2022-12-04T15:32:54.451Z,1.62
2022-12-04T15:35:26.694Z,1.64
2022-12-04T15:37:55.167Z,1.59
2022-12-04T15:40:27.539Z,1.60
2022-12-04T15:42:56.201Z,1.64
2022-12-04T15:45:34.300Z,1.57
2022-12-04T15:48:02.544Z,1.44
2022-12-04T15:50:31.891Z,1.52
2022-12-04T15:53:04.198Z,1.49
2022-12-04T15:55:34.217Z,1.55
2022-12-04T15:58:04.581Z,1.53
2022-12-04T16:00:39.109Z,1.40
2022-12-04T16:03:24.228Z,1.51
2022-12-04T16:06:03.633Z,1.51
2022-12-04T16:08:33.109Z,1.46
2022-12-04T16:11:02.927Z,1.45
2022-12-04T16:13:36.190Z,1.41
2022-12-04T16:16:08.780Z,1.47
2022-12-04T16:18:36.690Z,1.53
2022-12-04T16:21:04.831Z,1.60
2022-12-04T16:23:33.536Z,1.64
2022-12-04T16:26:01.355Z,1.66
2022-12-04T16:28:29.186Z,1.68
2022-12-04T16:30:57.091Z,1.54
2022-12-04T16:33:26.301Z,1.53
2022-12-04T16:35:54.414Z,1.57
2022-12-04T16:38:25.519Z,1.56
2022-12-04T16:40:56.155Z,1.51
2022-12-04T16:43:24.341Z,1.46
2022-12-04T16:45:54.112Z,1.54
2022-12-04T16:48:22.211Z,1.57
2022-12-04T16:50:51.382Z,1.64
2022-12-04T16:53:21.548Z,1.56
2022-12-04T16:55:50.933Z,1.54
2022-12-04T16:58:19.591Z,1.52
2022-12-04T17:00:52.920Z,1.67
2022-12-04T17:03:30.182Z,1.65
2022-12-04T17:06:01.525Z,1.61
2022-12-04T17:08:29.654Z,1.66
2022-12-04T17:10:57.498Z,1.62
2022-12-04T17:13:25.350Z,1.66
2022-12-04T17:15:53.266Z,1.65
2022-12-04T17:18:21.696Z,1.76
2022-12-04T17:20:50.377Z,1.71
2022-12-04T17:23:20.626Z,1.74
2022-12-04T17:25:48.468Z,1.76
2022-12-04T17:28:16.397Z,1.76
2022-12-04T17:30:46.250Z,1.66
2022-12-04T17:33:15.332Z,1.50
2022-12-04T17:35:44.038Z,1.71
2022-12-04T17:38:11.857Z,1.79
2022-12-04T17:40:41.033Z,1.79
2022-12-04T17:43:08.916Z,1.90
2022-12-04T17:45:36.722Z,1.93
2022-12-04T17:48:04.779Z,1.89
2022-12-04T17:50:32.719Z,1.74
2022-12-04T17:53:00.516Z,1.75
2022-12-04T17:55:28.709Z,1.74
2022-12-04T17:57:57.886Z,1.70
2022-12-04T18:00:26.192Z,1.66
2022-12-04T18:02:54.410Z,1.77
2022-12-04T18:05:22.533Z,1.67
2022-12-04T18:07:50.367Z,1.68
2022-12-04T18:10:18.406Z,1.59
2022-12-04T18:12:46.216Z,1.66
2022-12-04T18:15:15.440Z,1.67
2022-12-04T18:17:43.286Z,1.64
2022-12-04T18:20:11.839Z,1.67
2022-12-04T18:22:39.656Z,1.58
2022-12-04T18:25:09.011Z,1.55
2022-12-04T18:27:41.663Z,1.63
2022-12-04T18:30:10.674Z,1.67
2022-12-04T18:32:39.970Z,1.73
2022-12-04T18:35:08.435Z,1.74
2022-12-04T18:37:36.459Z,1.70
2022-12-04T18:40:06.874Z,1.67
2022-12-04T18:42:35.205Z,1.65
2022-12-04T18:45:03.031Z,1.61
2022-12-04T18:47:30.891Z,1.71
2022-12-04T18:50:00.513Z,1.55
2022-12-04T18:52:28.634Z,1.47
2022-12-04T18:54:56.733Z,1.62
2022-12-04T18:57:24.610Z,1.58
2022-12-04T18:59:52.640Z,1.61
2022-12-04T19:02:20.503Z,1.75
2022-12-04T19:04:48.318Z,1.79
2022-12-04T19:07:18.725Z,1.78
2022-12-04T19:12:34.488Z,1.74
2022-12-04T19:15:02.567Z,1.75
2022-12-04T19:17:30.394Z,1.79
2022-12-04T19:19:59.282Z,1.70
2022-12-04T19:22:30.407Z,1.62
2022-12-04T19:24:58.251Z,1.53
2022-12-04T19:27:27.555Z,1.50
2022-12-04T19:29:55.792Z,1.41
2022-12-04T19:32:24.445Z,1.46
2022-12-04T19:34:52.571Z,1.41
2022-12-04T19:37:20.668Z,1.40
2022-12-04T19:39:50.014Z,1.50
2022-12-04T19:42:17.964Z,1.53
2022-12-04T19:44:48.927Z,1.50
2022-12-04T19:47:19.082Z,1.49
2022-12-04T19:49:47.526Z,1.47
2022-12-04T19:52:15.805Z,1.55
2022-12-04T19:54:43.748Z,1.46
2022-12-04T19:57:15.792Z,1.49
2022-12-04T19:59:57.560Z,1.50
2022-12-04T20:02:25.636Z,1.54
2022-12-04T20:04:53.670Z,1.48
2022-12-04T20:07:21.629Z,1.50
2022-12-04T20:09:52.326Z,1.32
2022-12-04T20:12:22.122Z,1.41
2022-12-04T20:14:50.084Z,1.34
2022-12-04T20:17:17.900Z,1.33
2022-12-04T20:19:45.753Z,1.39
2022-12-04T20:22:13.547Z,1.41
2022-12-04T20:24:41.673Z,1.40
2022-12-04T20:27:09.815Z,1.52
2022-12-04T20:29:39.013Z,1.48
2022-12-04T20:32:07.159Z,1.52
2022-12-04T20:34:38.799Z,1.39
2022-12-04T20:37:11.290Z,1.45
2022-12-04T20:39:39.282Z,1.40
2022-12-04T20:42:07.112Z,1.44
2022-12-04T20:44:35.006Z,1.51
2022-12-04T20:47:04.299Z,1.47
2022-12-04T20:49:32.111Z,1.52
2022-12-04T20:51:59.913Z,1.43
2022-12-04T20:54:30.039Z,1.40
2022-12-04T20:56:57.873Z,1.45
2022-12-04T20:59:26.152Z,1.61
2022-12-04T21:01:54.708Z,1.74
2022-12-04T21:04:24.053Z,1.67
2022-12-04T21:06:52.064Z,1.77
2022-12-04T21:09:23.265Z,1.70
2022-12-04T21:11:53.482Z,1.71
2022-12-04T21:14:40.532Z,1.52
2022-12-04T21:17:11.766Z,1.46
2022-12-04T21:19:40.934Z,1.32
2022-12-04T21:22:08.821Z,1.31
2022-12-04T21:24:38.673Z,1.27
2022-12-04T21:27:08.995Z,1.38
2022-12-04T21:29:37.184Z,1.44
2022-12-04T21:32:05.922Z,1.47
2022-12-04T21:34:34.257Z,1.22
2022-12-04T21:37:03.480Z,1.32
2022-12-04T21:39:31.326Z,1.44
2022-12-04T21:42:16.429Z,1.50
2022-12-04T21:44:44.225Z,1.50
2022-12-04T21:47:12.040Z,1.50
2022-12-04T21:49:39.941Z,1.41
2022-12-04T21:52:09.099Z,1.30
2022-12-04T21:54:36.979Z,1.33
2022-12-04T21:57:04.827Z,1.34
2022-12-04T21:59:32.611Z,1.30
2022-12-04T22:02:00.784Z,1.30
2022-12-04T22:04:28.776Z,1.38
2022-12-04T22:06:56.567Z,1.44
2022-12-04T22:09:26.671Z,1.22
2022-12-04T22:11:54.547Z,1.16
2022-12-04T22:14:22.351Z,1.22
2022-12-04T22:16:52.103Z,1.22
2022-12-04T22:19:20.026Z,1.25
2022-12-04T22:21:47.901Z,1.12
2022-12-04T22:24:15.709Z,1.08
2022-12-04T22:26:44.820Z,1.11
2022-12-04T22:29:41.875Z,1.15
2022-12-04T22:32:00.339Z,1.20
2022-12-04T22:34:28.063Z,1.32
2022-12-04T22:36:55.889Z,1.29
2022-12-04T22:39:23.793Z,1.21
2022-12-04T22:41:52.959Z,1.16
2022-12-04T22:44:20.760Z,1.15
2022-12-04T22:46:48.600Z,1.22
2022-12-04T22:49:16.424Z,1.10
2022-12-04T22:51:44.155Z,1.13
2022-12-04T22:54:14.904Z,1.15
2022-12-04T22:56:43.532Z,1.22
2022-12-04T22:59:12.742Z,1.23
2022-12-04T23:01:40.779Z,1.21
2022-12-04T23:04:08.561Z,1.19
2022-12-04T23:06:36.719Z,1.29
2022-12-04T23:09:10.050Z,1.12
2022-12-04T23:11:38.052Z,1.30
2022-12-04T23:14:08.661Z,1.33
2022-12-04T23:16:39.592Z,1.46
2022-12-04T23:19:09.148Z,1.54
2022-12-04T23:21:36.964Z,1.71
2022-12-04T23:24:05.652Z,1.72
2022-12-04T23:26:36.119Z,1.68
2022-12-04T23:29:18.026Z,1.71
2022-12-04T23:31:54.543Z,1.75
2022-12-04T23:34:22.516Z,1.62
2022-12-04T23:36:50.353Z,1.38
2022-12-04T23:39:18.683Z,1.31
2022-12-04T23:41:46.423Z,1.38
2022-12-04T23:44:14.207Z,1.30
2022-12-04T23:46:42.016Z,1.20
2022-12-04T23:49:11.153Z,1.24
2022-12-04T23:51:39.547Z,1.26
2022-12-04T23:54:07.373Z,1.39
2022-12-04T23:56:35.213Z,2.17
2022-12-04T23:59:02.969Z,2.81
